Time;durP1;ratioP1;P1;durP2;ratioP2;P2;SDS_P1;SDS_P2;PMS_P1;PMS_P2;Temp;Humidity;BMP_temperature;BMP_pressure;BME280_temperature;BME280_humidity;BME280_pressure;Samples;Min_cycle;Max_cycle;Signal;HPM_P1;HPM_P2
2023/03/03 00:00:37;;;;;;;85.95;31.05;;;;;;;-1.83;100.00;101888.75;4985247;28;20026;-71
2023/03/03 00:03:06;;;;;;;93.40;33.33;;;;;;;-1.65;100.00;101891.63;4966797;28;20440;-74
2023/03/03 00:05:32;;;;;;;84.35;31.48;;;;;;;-1.71;100.00;101893.56;4984667;28;20235;-72
2023/03/03 00:07:58;;;;;;;79.13;30.13;;;;;;;-1.67;100.00;101906.53;4986621;28;20254;-74
2023/03/03 00:10:24;;;;;;;80.00;31.77;;;;;;;-1.75;100.00;101905.03;4981780;28;20373;-72
2023/03/03 00:12:50;;;;;;;70.40;27.90;;;;;;;-1.70;100.00;101899.66;4985028;28;20038;-72
2023/03/03 00:15:18;;;;;;;92.95;36.40;;;;;;;-1.60;100.00;101902.78;4981148;28;20373;-72
2023/03/03 00:17:44;;;;;;;103.82;35.30;;;;;;;-1.61;100.00;101906.31;4972487;28;20080;-72
2023/03/03 00:20:28;;;;;;;77.05;33.10;;;;;;;-1.61;100.00;101908.94;4980617;28;20062;-71
2023/03/03 00:22:54;;;;;;;81.30;30.60;;;;;;;-1.68;100.00;101907.47;4981812;28;20040;-72
2023/03/03 00:25:33;;;;;;;77.95;31.33;;;;;;;-1.72;100.00;101894.44;4968452;28;20407;-72
2023/03/03 00:28:21;;;;;;;78.88;29.30;;;;;;;-1.72;100.00;101894.44;4984890;28;20034;-73
2023/03/03 00:30:46;;;;;;;69.45;28.75;;;;;;;-1.73;100.00;101884.06;4970608;28;20489;-71
2023/03/03 00:33:23;;;;;;;74.32;29.98;;;;;;;-1.81;100.00;101873.00;4952785;28;20514;-72
2023/03/03 00:35:48;;;;;;;65.35;28.27;;;;;;;-1.89;100.00;101865.41;4966882;28;20085;-72
2023/03/03 00:38:17;;;;;;;76.57;30.02;;;;;;;-1.95;100.00;101863.00;4984383;28;20121;-72
2023/03/03 00:40:43;;;;;;;72.10;28.83;;;;;;;-1.94;100.00;101862.13;4984819;28;20510;-71
2023/03/03 00:43:19;;;;;;;61.88;26.73;;;;;;;-1.88;100.00;101863.66;4966743;28;20142;-71
2023/03/03 00:45:52;;;;;;;69.25;30.80;;;;;;;-1.88;100.00;101867.13;4966797;28;20238;-72
2023/03/03 00:48:34;;;;;;;89.03;29.98;;;;;;;-1.94;100.00;101864.75;4982099;28;20392;-75
2023/03/03 00:51:01;;;;;;;72.55;29.20;;;;;;;-1.96;100.00;101864.78;4964868;28;20399;-74
2023/03/03 00:53:28;;;;;;;68.45;28.02;;;;;;;-2.07;100.00;101866.06;4981076;28;20122;-72
2023/03/03 00:55:55;;;;;;;70.22;27.88;;;;;;;-2.18;100.00;101851.63;4984120;28;20031;-71
2023/03/03 00:58:21;;;;;;;71.75;27.30;;;;;;;-2.20;100.00;101849.94;4980903;28;20054;-72
2023/03/03 01:00:52;;;;;;;74.07;27.38;;;;;;;-2.17;100.00;101855.91;4983970;28;20049;-72
2023/03/03 01:03:23;;;;;;;73.63;29.92;;;;;;;-2.16;100.00;101844.53;4969005;28;20031;-71
2023/03/03 01:05:50;;;;;;;65.60;27.45;;;;;;;-2.21;100.00;101845.63;4984216;28;20073;-71
2023/03/03 01:08:16;;;;;;;74.55;27.88;;;;;;;-2.27;100.00;101843.19;4967853;28;20031;-73
2023/03/03 01:10:49;;;;;;;74.72;29.60;;;;;;;-2.27;100.00;101844.09;4983943;28;20041;-74
2023/03/03 01:13:16;;;;;;;81.15;31.15;;;;;;;-2.22;100.00;101842.16;4982267;28;20101;-71
2023/03/03 01:15:42;;;;;;;75.72;30.48;;;;;;;-2.19;100.00;101847.28;4968022;28;20045;-71
2023/03/03 01:18:10;;;;;;;79.45;29.35;;;;;;;-2.22;100.00;101843.91;4966826;28;20462;-73
2023/03/03 01:20:36;;;;;;;64.22;25.17;;;;;;;-2.29;100.00;101840.66;4983816;28;20038;-71
2023/03/03 01:23:01;;;;;;;71.10;26.73;;;;;;;-2.35;100.00;101836.47;4965518;28;20384;-72
2023/03/03 01:25:27;;;;;;;68.47;27.63;;;;;;;-2.33;100.00;101841.66;4981729;28;20374;-72
2023/03/03 01:27:52;;;;;;;65.22;27.50;;;;;;;-2.34;100.00;101834.75;4967932;28;20578;-74
2023/03/03 01:30:17;;;;;;;66.97;27.50;;;;;;;-2.35;100.00;101822.56;4967737;28;20050;-74
2023/03/03 01:32:43;;;;;;;72.50;30.73;;;;;;;-2.30;100.00;101823.25;4971633;28;20042;-73
2023/03/03 01:35:08;;;;;;;69.85;28.85;;;;;;;-2.24;100.00;101824.81;4965692;28;20097;-73
2023/03/03 01:37:35;;;;;;;78.25;33.97;;;;;;;-2.10;100.00;101838.25;4967910;28;20042;-71
2023/03/03 01:40:02;;;;;;;79.47;30.80;;;;;;;-1.98;100.00;101829.09;4951680;28;20057;-72
2023/03/03 01:42:28;;;;;;;147.40;37.65;;;;;;;-1.96;100.00;101829.91;4967515;28;20197;-73
2023/03/03 01:45:16;;;;;;;80.38;33.83;;;;;;;-1.93;100.00;101829.78;4983085;28;20040;-72
2023/03/03 01:47:47;;;;;;;98.20;34.55;;;;;;;-1.90;100.00;101821.81;4965626;28;20045;-72
2023/03/03 01:50:23;;;;;;;309.30;55.88;;;;;;;-1.85;100.00;101821.66;4966220;28;20090;-72
2023/03/03 01:52:49;;;;;;;;;;;;;;;-1.78;100.00;101829.25;4967708;28;20057;-75
2023/03/03 01:55:21;;;;;;;129.35;33.60;;;;;;;-1.79;100.00;101832.75;4967371;28;19921;-71
2023/03/03 01:57:55;;;;;;;708.08;76.15;;;;;;;-1.69;100.00;101841.13;4967980;28;20038;-71
2023/03/03 02:00:21;;;;;;;664.28;75.97;;;;;;;-1.67;100.00;101835.84;4967276;28;20483;-71
2023/03/03 02:02:47;;;;;;;423.08;57.78;;;;;;;-1.63;100.00;101842.66;4984016;28;20033;-72
2023/03/03 02:05:13;;;;;;;596.70;70.60;;;;;;;-1.64;100.00;101838.31;4965734;28;20527;-75
2023/03/03 02:07:39;;;;;;;95.57;34.97;;;;;;;-1.63;100.00;101840.06;4980796;28;20038;-71
2023/03/03 02:10:11;;;;;;;151.38;39.97;;;;;;;-1.61;100.00;101839.06;4982190;28;20026;-72
2023/03/03 02:12:37;;;;;;;131.95;41.20;;;;;;;-1.58;100.00;101841.56;4980885;28;20042;-71
2023/03/03 02:15:15;;;;;;;222.87;44.90;;;;;;;-1.59;100.00;101849.47;4983273;28;20499;-72
2023/03/03 02:17:41;;;;;;;551.42;74.13;;;;;;;-1.57;100.00;101843.31;4965439;28;20045;-71
2023/03/03 02:20:16;;;;;;;120.65;36.03;;;;;;;-1.58;100.00;101838.94;4967096;28;20234;-72
2023/03/03 02:23:09;;;;;;;136.00;38.80;;;;;;;-1.62;100.00;101844.38;4964970;28;20164;-72
2023/03/03 02:25:50;;;;;;;88.75;31.98;;;;;;;-1.69;100.00;101851.59;4966720;28;20048;-72
2023/03/03 02:28:16;;;;;;;72.45;30.70;;;;;;;-1.74;100.00;101849.13;4965359;28;20512;-72
2023/03/03 02:30:42;;;;;;;183.90;44.83;;;;;;;-1.78;100.00;101857.16;4950120;28;20206;-72
2023/03/03 02:33:08;;;;;;;471.33;56.70;;;;;;;-1.83;100.00;101857.31;4949531;28;20042;-73
2023/03/03 02:35:36;;;;;;;76.45;32.78;;;;;;;-1.81;100.00;101852.88;4982372;28;20038;-71
2023/03/03 02:38:18;;;;;;;72.85;31.75;;;;;;;-1.82;100.00;101845.97;4966957;28;20144;-71
2023/03/03 02:41:01;;;;;;;176.05;41.78;;;;;;;-1.80;100.00;101851.16;4964969;28;20042;-72
2023/03/03 02:43:35;;;;;;;177.77;37.53;;;;;;;-1.88;100.00;101851.41;4948471;28;20385;-73
2023/03/03 02:46:01;;;;;;;477.80;58.47;;;;;;;-1.84;100.00;101847.78;4980208;28;20026;-72
2023/03/03 02:48:26;;;;;;;82.70;33.13;;;;;;;-1.81;100.00;101850.28;4982750;28;20565;-74
2023/03/03 02:50:52;;;;;;;174.82;40.45;;;;;;;-1.77;100.00;101844.03;4966707;28;20041;-72
2023/03/03 02:53:17;;;;;;;442.02;54.05;;;;;;;-1.67;100.00;101848.94;4966569;28;20495;-73
2023/03/03 02:55:42;;;;;;;442.05;50.60;;;;;;;-1.66;100.00;101848.00;4980387;28;20034;-75
2023/03/03 02:58:08;;;;;;;126.13;35.45;;;;;;;-1.65;100.00;101845.34;4964859;28;20046;-73
2023/03/03 03:00:33;;;;;;;274.33;49.72;;;;;;;-1.57;100.00;101845.03;4985856;28;20030;-71
2023/03/03 03:02:59;;;;;;;79.88;32.45;;;;;;;-1.53;100.00;101851.88;4970320;28;20034;-72
2023/03/03 03:05:25;;;;;;;288.55;53.00;;;;;;;-1.55;100.00;101851.94;4983996;28;20085;-74
2023/03/03 03:07:50;;;;;;;81.70;32.85;;;;;;;-1.55;100.00;101851.94;4970152;28;20726;-73
2023/03/03 03:10:15;;;;;;;83.38;35.38;;;;;;;-1.55;100.00;101843.22;4969074;28;20070;-72
2023/03/03 03:12:41;;;;;;;185.20;40.90;;;;;;;-1.55;100.00;101843.22;4987245;28;20041;-73
2023/03/03 03:15:08;;;;;;;158.75;36.75;;;;;;;-1.47;100.00;101835.94;4967451;28;20043;-75
2023/03/03 03:17:36;;;;;;;207.30;40.45;;;;;;;-1.48;100.00;101831.59;4970182;28;20514;-72
2023/03/03 03:20:02;;;;;;;142.02;36.63;;;;;;;-1.49;100.00;101822.91;4970431;28;20019;-72
2023/03/03 03:22:28;;;;;;;141.80;35.03;;;;;;;-1.53;100.00;101818.69;4969487;28;20376;-72
2023/03/03 03:24:54;;;;;;;207.55;41.28;;;;;;;-1.50;100.00;101822.94;4985614;28;20022;-72
2023/03/03 03:27:19;;;;;;;257.02;40.38;;;;;;;-1.50;100.00;101826.44;4969562;28;20042;-73
2023/03/03 03:29:46;;;;;;;71.03;30.85;;;;;;;-1.55;100.00;101825.72;4969819;28;20038;-71
2023/03/03 03:32:11;;;;;;;182.80;39.45;;;;;;;-1.54;100.00;101824.84;4985181;28;20506;-72
2023/03/03 03:34:38;;;;;;;79.10;32.05;;;;;;;-1.54;100.00;101830.06;4969735;28;20081;-74
2023/03/03 03:37:04;;;;;;;173.40;41.03;;;;;;;-1.56;100.00;101818.81;4970049;28;20465;-73
2023/03/03 03:39:30;;;;;;;91.82;34.97;;;;;;;-1.50;100.00;101825.56;4976754;28;20468;-73
2023/03/03 03:41:55;;;;;;;105.35;36.63;;;;;;;-1.47;100.00;101828.09;4969460;28;20089;-71
2023/03/03 03:44:22;;;;;;;71.03;32.80;;;;;;;-1.46;100.00;101824.53;4969304;28;20033;-72
2023/03/03 03:46:48;;;;;;;140.43;37.03;;;;;;;-1.47;100.00;101820.22;4973556;28;20034;-72
2023/03/03 03:49:14;;;;;;;87.68;34.92;;;;;;;-1.41;100.00;101813.88;4969644;28;20101;-72
2023/03/03 03:51:40;;;;;;;92.35;34.38;;;;;;;-1.45;100.00;101813.16;4985744;28;20041;-72
2023/03/03 03:54:07;;;;;;;111.00;34.75;;;;;;;-1.52;100.00;101816.94;4969688;28;20459;-73
2023/03/03 03:56:34;;;;;;;155.43;40.97;;;;;;;-1.49;100.00;101816.81;4960511;28;20506;-74
2023/03/03 03:59:01;;;;;;;218.02;44.40;;;;;;;-1.49;100.00;101819.44;4969146;28;20035;-71
2023/03/03 04:01:27;;;;;;;299.30;51.03;;;;;;;-1.53;100.00;101815.22;4969426;28;20112;-71
2023/03/03 04:03:53;;;;;;;300.70;45.10;;;;;;;-1.52;100.00;101816.94;4972205;28;20027;-74
2023/03/03 04:06:21;;;;;;;115.57;36.38;;;;;;;-1.54;100.00;101811.75;4969644;28;20045;-71
2023/03/03 04:08:47;;;;;;;78.28;33.55;;;;;;;-1.54;100.00;101813.50;4985340;28;20514;-73
2023/03/03 04:11:13;;;;;;;238.70;49.35;;;;;;;-1.55;100.00;101812.63;4952034;28;20495;-73
2023/03/03 04:13:38;;;;;;;76.90;33.55;;;;;;;-1.59;100.00;101807.56;4969104;28;20034;-73
2023/03/03 04:16:06;;;;;;;85.95;35.53;;;;;;;-1.62;100.00;101819.03;4969233;28;20038;-72
2023/03/03 04:18:31;;;;;;;76.57;33.60;;;;;;;-1.72;100.00;101823.75;4972729;28;20542;-72
2023/03/03 04:20:57;;;;;;;83.20;35.85;;;;;;;-1.88;100.00;101809.53;4970000;28;20153;-72
2023/03/03 04:23:24;;;;;;;72.30;31.92;;;;;;;-1.93;100.00;101816.69;4967915;28;20034;-74
2023/03/03 04:25:50;;;;;;;70.97;31.40;;;;;;;-2.01;100.00;101803.91;4981481;28;20399;-74
2023/03/03 04:28:16;;;;;;;67.97;31.73;;;;;;;-2.09;100.00;101803.31;4968282;28;20038;-74
2023/03/03 04:30:42;;;;;;;63.15;30.30;;;;;;;-2.12;100.00;101803.44;4985020;28;20098;-73
2023/03/03 04:33:08;;;;;;;69.03;31.75;;;;;;;-2.16;100.00;101801.81;4967073;28;20065;-74
2023/03/03 04:35:36;;;;;;;61.53;28.55;;;;;;;-2.24;100.00;101791.63;4969747;28;20423;-74
2023/03/03 04:38:03;;;;;;;64.55;29.02;;;;;;;-2.29;100.00;101787.50;4952959;28;20031;-72
2023/03/03 04:40:30;;;;;;;61.08;29.05;;;;;;;-2.33;100.00;101798.03;4972337;28;20046;-73
2023/03/03 04:42:55;;;;;;;61.10;27.45;;;;;;;-2.33;100.00;101789.34;4952799;28;20026;-73
2023/03/03 04:45:21;;;;;;;59.72;28.33;;;;;;;-2.40;100.00;101786.09;4968560;28;20038;-74
2023/03/03 04:47:47;;;;;;;58.55;26.95;;;;;;;-2.39;100.00;101786.94;4964992;28;20136;-74
2023/03/03 04:50:13;;;;;;;57.00;27.92;;;;;;;-2.39;100.00;101785.19;4968227;28;20038;-72
2023/03/03 04:52:39;;;;;;;57.60;27.92;;;;;;;-2.47;100.00;101784.59;4971638;28;20435;-74
2023/03/03 04:55:07;;;;;;;57.17;27.88;;;;;;;-2.52;100.00;101788.28;4965490;28;20117;-74
2023/03/03 04:57:32;;;;;;;59.53;27.38;;;;;;;-2.53;100.00;101789.19;4968376;28;20030;-72
2023/03/03 04:59:58;;;;;;;57.80;28.98;;;;;;;-2.59;100.00;101791.09;4952120;28;20029;-73
2023/03/03 05:02:23;;;;;;;60.80;26.92;;;;;;;-2.63;100.00;101791.25;4966173;28;20559;-73
2023/03/03 05:04:49;;;;;;;52.72;25.83;;;;;;;-2.69;100.00;101781.88;4983440;28;20033;-74
2023/03/03 05:07:14;;;;;;;50.83;25.38;;;;;;;-2.74;100.00;101789.00;4980213;28;20034;-74
2023/03/03 05:09:39;;;;;;;52.20;25.10;;;;;;;-2.68;100.00;101790.56;4968109;28;20042;-74
2023/03/03 05:12:05;;;;;;;51.88;25.92;;;;;;;-2.64;100.00;101785.19;4967812;28;20030;-73
2023/03/03 05:14:31;;;;;;;54.78;25.45;;;;;;;-2.65;100.00;101793.91;4968093;28;20066;-71
2023/03/03 05:16:56;;;;;;;49.67;24.55;;;;;;;-2.66;100.00;101788.75;4979638;28;20089;-73
2023/03/03 05:19:23;;;;;;;52.28;25.60;;;;;;;-2.68;100.00;101796.66;4980151;28;20835;-75
2023/03/03 05:21:48;;;;;;;54.33;25.25;;;;;;;-2.71;100.00;101798.53;4967432;28;20334;-72
2023/03/03 05:24:14;;;;;;;43.60;24.35;;;;;;;-2.80;100.00;101802.28;4981734;28;20034;-74
2023/03/03 05:26:40;;;;;;;49.65;24.42;;;;;;;-2.85;100.00;101799.81;4983500;28;20038;-74
2023/03/03 05:29:05;;;;;;;;;;;;;;;-2.82;100.00;101804.94;4966237;28;20035;-74
2023/03/03 05:31:31;;;;;;;46.58;23.73;;;;;;;-2.84;100.00;101798.91;4983269;28;19914;-73
2023/03/03 05:33:57;;;;;;;49.45;24.02;;;;;;;-2.87;100.00;101801.63;4982241;28;20038;-74
2023/03/03 05:36:22;;;;;;;50.10;25.75;;;;;;;-2.86;100.00;101808.56;4979774;28;20100;-73
2023/03/03 05:38:48;;;;;;;53.15;25.02;;;;;;;-2.90;100.00;101803.47;4981585;28;20045;-73
2023/03/03 05:41:13;;;;;;;48.28;23.75;;;;;;;-2.95;100.00;101789.72;4965681;28;20119;-74
2023/03/03 05:43:39;;;;;;;46.47;22.45;;;;;;;-2.96;100.00;101788.88;4983509;28;20030;-73
2023/03/03 05:46:04;;;;;;;43.40;21.33;;;;;;;-3.01;100.00;101789.03;4966937;28;20030;-74
2023/03/03 05:48:30;;;;;;;49.88;24.77;;;;;;;-3.00;100.00;101785.53;4967534;28;20035;-74
2023/03/03 05:50:59;;;;;;;46.20;24.42;;;;;;;-3.04;100.00;101791.75;4967022;28;20476;-74
2023/03/03 05:53:26;;;;;;;51.65;22.17;;;;;;;-3.10;100.00;101785.84;4983577;28;20053;-74
2023/03/03 05:55:51;;;;;;;49.28;23.27;;;;;;;-3.17;100.00;101779.97;4983095;28;20466;-73
2023/03/03 05:58:16;;;;;;;52.85;24.25;;;;;;;-3.11;100.00;101787.63;4966808;28;20129;-74
2023/03/03 06:00:42;;;;;;;45.30;21.67;;;;;;;-3.10;100.00;101784.09;4966893;28;20042;-74
2023/03/03 06:03:07;;;;;;;;;;;;;;;-3.07;100.00;101794.44;4966453;28;20046;-71
2023/03/03 06:05:32;;;;;;;46.45;21.80;;;;;;;-3.13;100.00;101799.88;4968025;28;19917;-71
2023/03/03 06:07:58;;;;;;;38.13;19.95;;;;;;;-3.12;100.00;101795.50;4985288;28;20109;-74
2023/03/03 06:10:24;;;;;;;;;;;;;;;-3.01;100.00;101791.63;4968375;28;20722;-73
2023/03/03 06:12:53;;;;;;;47.80;22.52;;;;;;;-2.89;100.00;101797.38;4967583;28;19914;-73
2023/03/03 06:15:19;;;;;;;;;;;;;;;-2.77;100.00;101796.94;4979030;28;20150;-74
2023/03/03 06:17:44;;;;;;;51.70;24.85;;;;;;;-2.67;100.00;101787.91;4983163;28;20075;-73
2023/03/03 06:20:10;;;;;;;;;;;;;;;-2.56;100.00;101804.06;4967197;28;20060;-72
2023/03/03 06:22:35;;;;;;;62.58;26.42;;;;;;;-2.46;100.00;101811.59;4982720;28;20024;-73
2023/03/03 06:25:01;;;;;;;67.80;26.17;;;;;;;-2.38;100.00;101814.81;4967121;28;20030;-74
2023/03/03 06:27:26;;;;;;;104.82;27.58;;;;;;;-2.29;100.00;101818.88;4982902;28;20039;-74
2023/03/03 06:29:52;;;;;;;92.00;25.45;;;;;;;-2.21;100.00;101837.78;4966842;28;20034;-73
2023/03/03 06:32:17;;;;;;;50.45;25.67;;;;;;;-2.19;100.00;101836.81;4979258;28;20113;-74
2023/03/03 06:34:43;;;;;;;56.63;23.65;;;;;;;-2.09;100.00;101844.34;4984236;28;20895;-73
2023/03/03 06:37:08;;;;;;;150.27;30.42;;;;;;;-2.09;100.00;101839.09;4970872;28;20069;-72
2023/03/03 06:39:34;;;;;;;116.47;27.98;;;;;;;-2.00;100.00;101859.72;4986542;28;20042;-74
2023/03/03 06:41:59;;;;;;;54.20;21.98;;;;;;;-2.01;100.00;101853.63;4983652;28;20026;-74
2023/03/03 06:44:25;;;;;;;188.93;31.25;;;;;;;-1.95;100.00;101861.25;4983484;28;20054;-74
2023/03/03 06:46:50;;;;;;;202.50;31.15;;;;;;;-1.94;100.00;101851.66;4984253;28;20039;-73
2023/03/03 06:49:16;;;;;;;76.40;23.42;;;;;;;-1.86;100.00;101849.59;4984165;28;20069;-74
2023/03/03 06:51:42;;;;;;;148.38;28.00;;;;;;;-1.79;100.00;101845.00;4986030;28;20106;-74
2023/03/03 06:54:13;;;;;;;116.07;27.17;;;;;;;-1.66;100.00;101848.88;4983413;28;20488;-74
2023/03/03 06:56:40;;;;;;;295.70;35.03;;;;;;;-1.68;100.00;101842.00;4971663;28;20034;-73
2023/03/03 06:59:15;;;;;;;188.93;30.60;;;;;;;-1.60;100.00;101850.41;4970397;28;20026;-71
2023/03/03 07:01:41;;;;;;;193.40;32.67;;;;;;;-1.51;100.00;101853.53;4983630;28;20399;-71
2023/03/03 07:04:10;;;;;;;;;;;;;;;-1.44;100.00;101861.16;4984730;28;20026;-71
2023/03/03 07:06:36;;;;;;;99.43;26.35;;;;;;;-1.49;100.00;101853.47;4988873;28;19921;-72
2023/03/03 07:09:08;;;;;;;132.07;25.60;;;;;;;-1.35;100.00;101856.41;4988972;28;20034;-72
2023/03/03 07:11:38;;;;;;;63.40;19.15;;;;;;;-1.29;100.00;101866.69;4970972;28;20772;-72
2023/03/03 07:14:13;;;;;;;198.93;31.58;;;;;;;-1.22;100.00;101862.03;4970922;28;20038;-73
2023/03/03 07:16:38;;;;;;;171.20;28.00;;;;;;;-1.22;100.00;101866.44;4987940;28;20049;-72
2023/03/03 07:19:17;;;;;;;177.38;26.40;;;;;;;-1.19;100.00;101866.31;4988517;28;20030;-75
2023/03/03 07:21:43;;;;;;;177.55;26.77;;;;;;;-1.09;100.00;101878.16;4985701;28;20104;-72
2023/03/03 07:24:26;;;;;;;119.93;23.87;;;;;;;-1.07;100.00;101876.31;4985742;28;20030;-72
2023/03/03 07:26:57;;;;;;;74.90;20.80;;;;;;;-1.08;100.00;101870.25;4987991;28;20284;-73
2023/03/03 07:29:25;;;;;;;156.60;27.33;;;;;;;-0.98;100.00;101865.47;4984024;28;20044;-72
2023/03/03 07:31:54;;;;;;;35.38;17.73;;;;;;;-0.82;100.00;101870.09;4970469;28;20042;-72
2023/03/03 07:34:36;;;;;;;64.40;18.00;;;;;;;-0.78;100.00;101861.19;4970497;28;20038;-72
2023/03/03 07:37:13;;;;;;;139.45;25.90;;;;;;;-0.75;100.00;101875.06;4980711;28;20921;-74
2023/03/03 07:39:43;;;;;;;143.82;23.75;;;;;;;-0.86;100.00;101867.59;4988354;28;20046;-73
2023/03/03 07:42:47;;;;;;;32.30;14.48;;;;;;;-0.72;100.00;101864.44;4986393;28;20045;-74
2023/03/03 07:45:33;;;;;;;157.68;24.90;;;;;;;-0.80;100.00;101858.63;4928932;29;20039;-74
2023/03/03 07:48:14;;;;;;;85.40;20.38;;;;;;;-0.64;100.00;101866.72;4924028;29;20082;-73
2023/03/03 07:50:40;;;;;;;118.82;21.40;;;;;;;-0.69;100.00;101868.69;4930980;29;20051;-74
2023/03/03 07:53:13;;;;;;;82.80;20.17;;;;;;;-0.61;100.00;101858.72;4932159;29;20505;-74
2023/03/03 07:55:39;;;;;;;161.13;24.80;;;;;;;-0.62;100.00;101861.44;4930203;29;20560;-74
2023/03/03 07:58:46;;;;;;;80.95;18.88;;;;;;;-0.56;100.00;101866.41;4925887;29;20047;-74
2023/03/03 08:01:39;;;;;;;30.45;15.13;;;;;;;-0.54;100.00;101860.22;4932512;29;20044;-74
2023/03/03 08:04:37;;;;;;;311.33;27.95;;;;;;;-0.70;100.00;101853.88;4931101;29;20054;-72
2023/03/03 08:07:12;;;;;;;112.88;18.48;;;;;;;-0.70;100.00;101861.75;4915529;29;20043;-74
2023/03/03 08:09:43;;;;;;;32.22;14.15;;;;;;;-0.62;100.00;101878.00;4931095;29;20572;-74
2023/03/03 08:12:40;;;;;;;108.15;17.90;;;;;;;-0.68;100.00;101873.88;4931167;29;20486;-74
2023/03/03 08:15:20;;;;;;;102.35;16.48;;;;;;;-0.52;100.00;101874.09;4919173;28;20071;-73
2023/03/03 08:17:46;;;;;;;55.08;16.40;;;;;;;-0.57;100.00;101864.72;4983419;28;20038;-73
2023/03/03 08:20:42;;;;;;;85.13;17.48;;;;;;;-0.39;100.00;101876.22;4951645;28;20058;-73
2023/03/03 08:23:07;;;;;;;131.48;21.92;;;;;;;-0.40;100.00;101874.50;4982247;28;20061;-71
2023/03/03 08:25:32;;;;;;;184.23;22.05;;;;;;;-0.33;100.00;101868.94;4968999;28;20061;-73
2023/03/03 08:27:58;;;;;;;91.95;17.73;;;;;;;-0.22;100.00;101871.09;4969375;28;20527;-74
2023/03/03 08:30:23;;;;;;;36.65;16.15;;;;;;;-0.09;100.00;101877.53;4967295;28;20126;-72
2023/03/03 08:32:48;;;;;;;26.25;13.70;;;;;;;0.05;100.00;101874.31;4983147;28;20065;-74
2023/03/03 08:35:14;;;;;;;31.67;16.10;;;;;;;0.18;100.00;101879.88;4968826;28;20030;-74
2023/03/03 08:37:39;;;;;;;30.02;14.00;;;;;;;0.21;100.00;101879.72;4985273;28;20038;-73
2023/03/03 08:40:05;;;;;;;29.90;15.88;;;;;;;0.33;100.00;101883.63;4969258;28;20081;-74
2023/03/03 08:42:31;;;;;;;71.47;17.90;;;;;;;0.34;100.00;101882.69;4968802;28;20034;-71
2023/03/03 08:44:56;;;;;;;34.10;14.70;;;;;;;0.46;100.00;101889.16;4968794;28;20541;-74
2023/03/03 08:47:21;;;;;;;67.13;20.13;;;;;;;0.65;100.00;101884.75;4969100;28;20040;-74
2023/03/03 08:49:47;;;;;;;51.17;17.30;;;;;;;0.66;100.00;101883.84;4984678;28;20384;-73
2023/03/03 08:52:12;;;;;;;44.50;18.17;;;;;;;0.66;100.00;101881.22;4968851;28;20327;-71
2023/03/03 08:54:37;;;;;;;38.45;17.67;;;;;;;0.66;100.00;101872.50;4968481;28;20046;-74
2023/03/03 08:57:03;;;;;;;89.00;21.55;;;;;;;0.74;100.00;101867.72;4981297;28;20520;-74
2023/03/03 08:59:28;;;;;;;41.58;15.55;;;;;;;0.84;100.00;101872.47;4981776;28;20060;-74
2023/03/03 09:01:53;;;;;;;48.67;16.40;;;;;;;1.05;100.00;101869.72;4968415;28;20038;-75
2023/03/03 09:04:19;;;;;;;28.95;13.98;;;;;;;1.23;100.00;101871.47;4968033;28;20296;-74
2023/03/03 09:06:44;;;;;;;27.10;14.52;;;;;;;1.35;100.00;101856.03;4982355;28;20049;-74
2023/03/03 09:09:10;;;;;;;37.33;15.32;;;;;;;1.40;100.00;101851.38;4968529;28;20026;-74
2023/03/03 09:11:35;;;;;;;38.13;15.80;;;;;;;1.35;100.00;101843.72;4981907;28;20034;-74
2023/03/03 09:14:10;;;;;;;21.07;11.63;;;;;;;1.27;100.00;101846.72;4981918;28;20375;-73
2023/03/03 09:16:52;;;;;;;21.83;12.88;;;;;;;1.27;100.00;101840.63;4984411;28;20038;-74
2023/03/03 09:19:32;;;;;;;25.58;13.27;;;;;;;1.27;100.00;101838.84;4982241;28;20550;-74
2023/03/03 09:22:10;;;;;;;21.55;13.73;;;;;;;1.41;100.00;101837.31;4981740;28;20066;-74
2023/03/03 09:24:36;;;;;;;20.95;11.30;;;;;;;1.65;100.00;101843.94;4981870;28;20077;-74
2023/03/03 09:27:01;;;;;;;18.60;10.95;;;;;;;1.73;100.00;101837.44;4986231;28;20026;-73
2023/03/03 09:29:29;;;;;;;18.48;11.43;;;;;;;1.56;100.00;101831.25;4986360;28;20038;-74
2023/03/03 09:32:00;;;;;;;19.38;11.15;;;;;;;1.48;100.00;101828.19;4986185;28;20034;-73
2023/03/03 09:34:41;;;;;;;20.40;10.98;;;;;;;1.51;100.00;101822.75;4982158;28;20867;-74
2023/03/03 09:37:31;;;;;;;17.00;10.82;;;;;;;1.61;100.00;101812.59;4983989;28;20105;-72
2023/03/03 09:39:57;;;;;;;15.52;10.13;;;;;;;1.82;100.00;101822.03;4952832;28;20038;-72
2023/03/03 09:42:44;;;;;;;19.65;12.18;;;;;;;1.92;100.00;101822.41;4968759;28;20037;-74
2023/03/03 09:45:54;;;;;;;17.73;10.60;;;;;;;2.04;100.00;101821.75;4965098;28;20400;-73
2023/03/03 09:48:40;;;;;;;21.83;10.63;;;;;;;1.95;100.00;101816.13;4950653;28;20555;-73
2023/03/03 09:51:26;;;;;;;19.65;10.52;;;;;;;1.87;100.00;101798.06;4984645;28;20045;-73
2023/03/03 09:54:10;;;;;;;18.85;10.43;;;;;;;1.90;100.00;101792.66;4981059;28;20043;-73
2023/03/03 09:57:06;;;;;;;16.95;9.32;;;;;;;1.68;100.00;101775.34;4983078;28;20338;-73
2023/03/03 09:59:48;;;;;;;18.30;9.98;;;;;;;1.92;100.00;101784.66;4981025;28;20410;-73
2023/03/03 10:02:34;;;;;;;21.38;10.32;;;;;;;1.85;100.00;101778.88;4979920;28;20169;-72
2023/03/03 10:05:24;;;;;;;13.27;8.10;;;;;;;2.01;100.00;101784.19;4981292;28;20438;-73
2023/03/03 10:08:10;;;;;;;16.65;9.23;;;;;;;2.11;100.00;101765.19;4985181;28;20038;-72
2023/03/03 10:10:48;;;;;;;13.57;8.23;;;;;;;2.04;100.00;101755.06;4989636;28;20041;-72
2023/03/03 10:13:29;;;;;;;13.45;8.02;;;;;;;2.45;100.00;101767.75;4989742;28;20046;-72
2023/03/03 10:16:21;;;;;;;12.40;7.88;;;;;;;2.81;100.00;101761.34;4988168;28;20030;-72
2023/03/03 10:19:29;;;;;;;14.13;7.90;;;;;;;3.38;100.00;101759.75;4991815;28;20181;-73
2023/03/03 10:22:19;;;;;;;12.48;6.93;;;;;;;3.66;100.00;101736.97;4983903;28;20030;-74
2023/03/03 10:25:20;;;;;;;10.68;6.50;;;;;;;4.04;100.00;101731.09;4970340;28;20531;-74
2023/03/03 10:28:39;;;;;;;12.43;6.57;;;;;;;4.31;100.00;101714.41;4983278;28;20034;-75
2023/03/03 10:31:29;;;;;;;9.63;6.05;;;;;;;4.07;100.00;101677.19;4899853;29;20127;-73
2023/03/03 10:34:19;;;;;;;12.80;6.88;;;;;;;4.27;100.00;101668.84;4921855;29;20071;-75
2023/03/03 10:37:19;;;;;;;14.00;6.63;;;;;;;4.18;100.00;101633.28;4893125;29;20096;-74
2023/03/03 10:39:51;;;;;;;15.10;6.40;;;;;;;4.89;100.00;101643.63;4903330;29;20050;-75
2023/03/03 10:42:39;;;;;;;16.55;7.32;;;;;;;4.45;100.00;101587.47;4916495;29;20032;-74
2023/03/03 10:45:24;;;;;;;15.50;6.40;;;;;;;4.82;100.00;101591.16;4911620;29;20480;-74
2023/03/03 10:48:05;;;;;;;10.95;6.05;;;;;;;4.73;100.00;101564.44;4917360;29;20036;-74
2023/03/03 10:50:52;;;;;;;11.90;6.45;;;;;;;4.67;100.00;101533.13;4923281;29;20038;-74
2023/03/03 10:53:33;;;;;;;14.70;6.25;;;;;;;4.85;100.00;101534.53;4910602;29;20080;-72
2023/03/03 10:56:02;;;;;;;16.95;7.72;;;;;;;4.98;100.00;101526.56;4901320;29;20351;-75
2023/03/03 10:58:36;;;;;;;14.23;7.97;;;;;;;5.11;100.00;101515.97;4915710;29;20098;-75
2023/03/03 11:01:23;;;;;;;16.10;7.60;;;;;;;5.11;100.00;101484.22;4903988;29;20036;-73
2023/03/03 11:04:07;;;;;;;17.95;8.00;;;;;;;4.91;100.00;101477.66;4925850;28;20399;-76
2023/03/03 11:06:48;;;;;;;16.58;8.13;;;;;;;4.83;100.00;101459.69;4970025;28;20034;-76
2023/03/03 11:09:26;;;;;;;13.55;7.40;;;;;;;4.69;100.00;101446.59;4970852;28;20041;-75
2023/03/03 11:11:57;;;;;;;13.82;6.65;;;;;;;4.94;100.00;101485.38;4986260;28;20040;-74
2023/03/03 11:14:26;;;;;;;14.30;6.60;;;;;;;5.24;100.00;101490.31;4970705;28;20069;-76
2023/03/03 11:17:10;;;;;;;11.35;6.25;;;;;;;5.02;100.00;101415.09;4986663;28;20036;-75
2023/03/03 11:20:09;;;;;;;12.68;6.85;;;;;;;4.88;100.00;101404.63;4985923;28;20035;-76
2023/03/03 11:22:43;;;;;;;13.48;5.75;;;;;;;5.00;100.00;101401.09;4970832;28;20097;-74